sensor_id;sensor_type;location;lat;lon;timestamp;pressure;altitude;pressure_sealevel;temperature;humidity
19114;BME280;9689;51.052;13.772;2024-01-15T00:00:07;98488.59;;;2.03;71.09
19114;BME280;9689;51.052;13.772;2024-01-15T00:05:12;98464.69;;;2.01;70.25
19114;BME280;9689;51.052;13.772;2024-01-15T00:10:13;98455.25;;;2.01;70.63
19114;BME280;9689;51.052;13.772;2024-01-15T00:15:14;98456.13;;;1.98;70.73
19114;BME280;9689;51.052;13.772;2024-01-15T00:20:16;98464.81;;;1.90;71.31
19114;BME280;9689;51.052;13.772;2024-01-15T00:25:17;98441.78;;;1.85;71.76
19114;BME280;9689;51.052;13.772;2024-01-15T00:30:18;98453.75;;;1.86;71.47
19114;BME280;9689;51.052;13.772;2024-01-15T00:35:20;98432.44;;;1.80;72.06
19114;BME280;9689;51.052;13.772;2024-01-15T00:40:21;98452.16;;;1.78;71.87
19114;BME280;9689;51.052;13.772;2024-01-15T00:45:21;98439.28;;;1.79;72.30
19114;BME280;9689;51.052;13.772;2024-01-15T00:50:23;98438.66;;;1.63;72.88
19114;BME280;9689;51.052;13.772;2024-01-15T00:55:24;98448.81;;;1.71;72.95
19114;BME280;9689;51.052;13.772;2024-01-15T01:00:25;98444.56;;;1.70;72.47
19114;BME280;9689;51.052;13.772;2024-01-15T01:05:27;98426.66;;;1.67;72.74
19114;BME280;9689;51.052;13.772;2024-01-15T01:10:28;98422.25;;;1.74;72.04
19114;BME280;9689;51.052;13.772;2024-01-15T01:15:29;98429.16;;;1.70;71.94
19114;BME280;9689;51.052;13.772;2024-01-15T01:20:31;98415.59;;;1.62;71.99
19114;BME280;9689;51.052;13.772;2024-01-15T01:25:32;98407.13;;;1.55;72.23
19114;BME280;9689;51.052;13.772;2024-01-15T01:30:33;98413.09;;;1.57;71.81
19114;BME280;9689;51.052;13.772;2024-01-15T01:35:35;98401.09;;;1.56;71.72
19114;BME280;9689;51.052;13.772;2024-01-15T01:40:36;98402.97;;;1.47;72.24
19114;BME280;9689;51.052;13.772;2024-01-15T01:45:37;98377.31;;;1.48;72.40
19114;BME280;9689;51.052;13.772;2024-01-15T01:50:40;98391.88;;;1.45;71.95
19114;BME280;9689;51.052;13.772;2024-01-15T01:55:41;98385.91;;;1.44;71.94
19114;BME280;9689;51.052;13.772;2024-01-15T02:00:42;98390.09;;;1.50;71.86
19114;BME280;9689;51.052;13.772;2024-01-15T02:05:47;98391.88;;;1.45;71.53
19114;BME280;9689;51.052;13.772;2024-01-15T02:10:49;98381.47;;;1.54;71.00
19114;BME280;9689;51.052;13.772;2024-01-15T02:15:50;98386.56;;;1.55;70.96
19114;BME280;9689;51.052;13.772;2024-01-15T02:20:52;98373.00;;;1.47;70.98
19114;BME280;9689;51.052;13.772;2024-01-15T02:25:54;98373.06;;;1.44;70.83
19114;BME280;9689;51.052;13.772;2024-01-15T02:30:54;98362.81;;;1.42;71.18
19114;BME280;9689;51.052;13.772;2024-01-15T02:35:56;98355.19;;;1.38;71.24
19114;BME280;9689;51.052;13.772;2024-01-15T02:40:58;98350.94;;;1.35;71.56
19114;BME280;9689;51.052;13.772;2024-01-15T02:45:59;98343.28;;;1.34;71.53
19114;BME280;9689;51.052;13.772;2024-01-15T02:51:00;98337.31;;;1.33;71.04
19114;BME280;9689;51.052;13.772;2024-01-15T02:56:02;98334.88;;;1.24;70.79
19114;BME280;9689;51.052;13.772;2024-01-15T03:01:03;98349.38;;;1.25;70.94
19114;BME280;9689;51.052;13.772;2024-01-15T03:06:04;98334.00;;;1.25;70.87
19114;BME280;9689;51.052;13.772;2024-01-15T03:11:07;98293.81;;;1.24;70.87
19114;BME280;9689;51.052;13.772;2024-01-15T03:16:07;98322.16;;;1.17;70.94
19114;BME280;9689;51.052;13.772;2024-01-15T03:21:08;98340.03;;;1.21;71.02
19114;BME280;9689;51.052;13.772;2024-01-15T03:26:10;98316.09;;;1.21;70.39
19114;BME280;9689;51.052;13.772;2024-01-15T03:31:11;98323.03;;;1.16;70.41
19114;BME280;9689;51.052;13.772;2024-01-15T03:36:12;98323.84;;;1.18;70.39
19114;BME280;9689;51.052;13.772;2024-01-15T03:41:14;98340.19;;;1.10;70.03
19114;BME280;9689;51.052;13.772;2024-01-15T03:46:15;98353.03;;;1.09;70.45
19114;BME280;9689;51.052;13.772;2024-01-15T03:51:17;98341.19;;;1.00;70.51
19114;BME280;9689;51.052;13.772;2024-01-15T03:56:19;98338.63;;;0.99;71.18
19114;BME280;9689;51.052;13.772;2024-01-15T04:01:20;98336.25;;;0.85;71.80
19114;BME280;9689;51.052;13.772;2024-01-15T04:06:20;98343.09;;;0.83;72.80
19114;BME280;9689;51.052;13.772;2024-01-15T04:11:23;98332.09;;;0.75;72.57
19114;BME280;9689;51.052;13.772;2024-01-15T04:16:24;98332.94;;;0.75;72.82
19114;BME280;9689;51.052;13.772;2024-01-15T04:21:24;98332.94;;;0.75;72.82
19114;BME280;9689;51.052;13.772;2024-01-15T04:26:26;98317.63;;;0.69;72.63
19114;BME280;9689;51.052;13.772;2024-01-15T04:31:27;98309.16;;;0.64;72.56
19114;BME280;9689;51.052;13.772;2024-01-15T04:36:28;98320.22;;;0.68;71.70
19114;BME280;9689;51.052;13.772;2024-01-15T04:41:30;98318.50;;;0.70;71.58
19114;BME280;9689;51.052;13.772;2024-01-15T04:46:31;98298.00;;;0.70;71.05
19114;BME280;9689;51.052;13.772;2024-01-15T04:51:32;98316.03;;;0.62;71.36
19114;BME280;9689;51.052;13.772;2024-01-15T04:56:34;98304.19;;;0.53;71.56
19114;BME280;9689;51.052;13.772;2024-01-15T05:01:35;98309.41;;;0.46;71.42
19114;BME280;9689;51.052;13.772;2024-01-15T05:06:36;98322.22;;;0.43;72.00
19114;BME280;9689;51.052;13.772;2024-01-15T05:11:38;98334.28;;;0.36;71.49
19114;BME280;9689;51.052;13.772;2024-01-15T05:16:38;98339.34;;;0.41;71.60
19114;BME280;9689;51.052;13.772;2024-01-15T05:21:39;98354.75;;;0.35;71.61
19114;BME280;9689;51.052;13.772;2024-01-15T05:26:41;98347.03;;;0.39;71.74
19114;BME280;9689;51.052;13.772;2024-01-15T05:31:42;98349.56;;;0.42;71.85
19114;BME280;9689;51.052;13.772;2024-01-15T05:36:43;98347.88;;;0.40;71.83
19114;BME280;9689;51.052;13.772;2024-01-15T05:41:48;98331.78;;;0.28;72.19
19114;BME280;9689;51.052;13.772;2024-01-15T05:46:49;98346.22;;;0.37;71.30
19114;BME280;9689;51.052;13.772;2024-01-15T05:51:50;98344.44;;;0.44;70.96
19114;BME280;9689;51.052;13.772;2024-01-15T05:56:52;98346.13;;;0.46;70.32
19114;BME280;9689;51.052;13.772;2024-01-15T06:01:53;98344.47;;;0.41;70.48
19114;BME280;9689;51.052;13.772;2024-01-15T06:06:54;98348.72;;;0.42;70.33
19114;BME280;9689;51.052;13.772;2024-01-15T06:11:56;98339.31;;;0.44;70.10
19114;BME280;9689;51.052;13.772;2024-01-15T06:16:57;98328.13;;;0.52;69.29
19114;BME280;9689;51.052;13.772;2024-01-15T06:21:57;98319.56;;;0.50;69.05
19114;BME280;9689;51.052;13.772;2024-01-15T06:27:00;98328.03;;;0.57;68.54
19114;BME280;9689;51.052;13.772;2024-01-15T06:32:00;98296.41;;;0.58;68.30
19114;BME280;9689;51.052;13.772;2024-01-15T06:37:01;98312.69;;;0.55;68.12
19114;BME280;9689;51.052;13.772;2024-01-15T06:42:04;98338.28;;;0.59;67.96
19114;BME280;9689;51.052;13.772;2024-01-15T06:47:05;98315.19;;;0.62;67.89
19114;BME280;9689;51.052;13.772;2024-01-15T06:52:06;98309.19;;;0.63;67.94
19114;BME280;9689;51.052;13.772;2024-01-15T06:57:08;98306.59;;;0.64;67.36
19114;BME280;9689;51.052;13.772;2024-01-15T07:02:09;98306.59;;;0.64;67.52
19114;BME280;9689;51.052;13.772;2024-01-15T07:07:10;98326.28;;;0.62;67.55
19114;BME280;9689;51.052;13.772;2024-01-15T07:12:12;98307.50;;;0.60;67.64
19114;BME280;9689;51.052;13.772;2024-01-15T07:17:13;98325.41;;;0.63;67.05
19114;BME280;9689;51.052;13.772;2024-01-15T07:22:13;98345.94;;;0.62;67.00
19114;BME280;9689;51.052;13.772;2024-01-15T07:27:20;98354.44;;;0.65;66.87
19114;BME280;9689;51.052;13.772;2024-01-15T07:32:20;98365.59;;;0.60;66.89
19114;BME280;9689;51.052;13.772;2024-01-15T07:37:21;98400.63;;;0.62;67.75
19114;BME280;9689;51.052;13.772;2024-01-15T07:42:24;98365.69;;;0.53;68.71
19114;BME280;9689;51.052;13.772;2024-01-15T07:47:25;98360.53;;;0.55;68.51
19114;BME280;9689;51.052;13.772;2024-01-15T07:52:26;98357.16;;;0.51;68.01
19114;BME280;9689;51.052;13.772;2024-01-15T07:57:28;98369.19;;;0.45;68.29
19114;BME280;9689;51.052;13.772;2024-01-15T08:02:29;98351.16;;;0.51;67.65
19114;BME280;9689;51.052;13.772;2024-01-15T08:07:36;98351.91;;;0.61;66.77
19114;BME280;9689;51.052;13.772;2024-01-15T08:12:38;98350.22;;;0.61;67.17
19114;BME280;9689;51.052;13.772;2024-01-15T08:17:38;98352.69;;;0.67;66.89
19114;BME280;9689;51.052;13.772;2024-01-15T08:22:39;98356.09;;;0.68;66.70
19114;BME280;9689;51.052;13.772;2024-01-15T08:27:41;98357.16;;;0.53;66.85
19114;BME280;9689;51.052;13.772;2024-01-15T08:32:42;98371.47;;;0.69;66.72
19114;BME280;9689;51.052;13.772;2024-01-15T08:37:43;98350.84;;;0.80;66.98
19114;BME280;9689;51.052;13.772;2024-01-15T08:42:45;98365.38;;;0.78;66.03
19114;BME280;9689;51.052;13.772;2024-01-15T08:47:46;98355.25;;;0.70;66.58
19114;BME280;9689;51.052;13.772;2024-01-15T08:52:47;98355.06;;;0.84;65.76
19114;BME280;9689;51.052;13.772;2024-01-15T08:57:49;98367.94;;;0.79;65.63
19114;BME280;9689;51.052;13.772;2024-01-15T09:02:50;98373.84;;;0.84;65.25
19114;BME280;9689;51.052;13.772;2024-01-15T09:07:51;98367.75;;;0.93;65.22
19114;BME280;9689;51.052;13.772;2024-01-15T09:12:53;98388.22;;;0.98;64.51
19114;BME280;9689;51.052;13.772;2024-01-15T09:17:54;98389.00;;;1.06;64.34
19114;BME280;9689;51.052;13.772;2024-01-15T09:22:57;98374.97;;;1.30;63.34
19114;BME280;9689;51.052;13.772;2024-01-15T09:27:59;98387.78;;;1.33;63.63
19114;BME280;9689;51.052;13.772;2024-01-15T09:32:59;98368.91;;;1.35;63.11
19114;BME280;9689;51.052;13.772;2024-01-15T09:38:00;98383.41;;;1.38;62.90
19114;BME280;9689;51.052;13.772;2024-01-15T09:43:03;98384.81;;;1.60;61.78
19114;BME280;9689;51.052;13.772;2024-01-15T09:48:05;98365.91;;;1.66;61.55
19114;BME280;9689;51.052;13.772;2024-01-15T09:53:06;98370.91;;;1.72;61.67
19114;BME280;9689;51.052;13.772;2024-01-15T09:58:08;98382.28;;;1.57;61.70
19114;BME280;9689;51.052;13.772;2024-01-15T10:03:10;98365.78;;;1.72;61.45
19114;BME280;9689;51.052;13.772;2024-01-15T10:08:11;98361.44;;;1.77;61.15
19114;BME280;9689;51.052;13.772;2024-01-15T10:13:14;98373.72;;;1.58;61.17
19114;BME280;9689;51.052;13.772;2024-01-15T10:18:15;98365.88;;;1.67;60.76
19114;BME280;9689;51.052;13.772;2024-01-15T10:23:16;98358.16;;;1.69;60.59
19114;BME280;9689;51.052;13.772;2024-01-15T10:28:19;98345.16;;;1.78;60.62
19114;BME280;9689;51.052;13.772;2024-01-15T10:33:22;98328.81;;;1.82;60.50
19114;BME280;9689;51.052;13.772;2024-01-15T10:38:25;98355.22;;;1.90;60.00
19114;BME280;9689;51.052;13.772;2024-01-15T10:43:27;98353.47;;;1.94;60.42
19114;BME280;9689;51.052;13.772;2024-01-15T10:48:29;98374.75;;;2.01;59.93
19114;BME280;9689;51.052;13.772;2024-01-15T10:53:31;98352.69;;;1.89;60.21
19114;BME280;9689;51.052;13.772;2024-01-15T10:58:34;98367.13;;;1.96;60.28
19114;BME280;9689;51.052;13.772;2024-01-15T11:03:35;98341.56;;;1.88;60.10
19114;BME280;9689;51.052;13.772;2024-01-15T11:08:36;98357.84;;;1.87;60.28
19114;BME280;9689;51.052;13.772;2024-01-15T11:13:41;98351.06;;;1.83;60.13
19114;BME280;9689;51.052;13.772;2024-01-15T11:19:02;98338.22;;;1.85;59.77
19114;BME280;9689;51.052;13.772;2024-01-15T11:24:05;98364.75;;;1.82;60.12
19114;BME280;9689;51.052;13.772;2024-01-15T11:29:30;98334.00;;;1.79;60.65
19114;BME280;9689;51.052;13.772;2024-01-15T11:34:51;98332.38;;;1.74;60.48
19114;BME280;9689;51.052;13.772;2024-01-15T11:39:53;98348.59;;;1.77;60.25
19114;BME280;9689;51.052;13.772;2024-01-15T11:44:56;98327.69;;;1.98;59.99
19114;BME280;9689;51.052;13.772;2024-01-15T11:50:00;98317.00;;;2.21;59.62
19114;BME280;9689;51.052;13.772;2024-01-15T11:55:11;98278.56;;;2.15;59.34
19114;BME280;9689;51.052;13.772;2024-01-15T12:00:15;98322.91;;;2.25;59.43
19114;BME280;9689;51.052;13.772;2024-01-15T12:05:17;98318.53;;;2.32;59.18
19114;BME280;9689;51.052;13.772;2024-01-15T12:10:20;98302.22;;;2.33;59.23
19114;BME280;9689;51.052;13.772;2024-01-15T12:15:22;98315.31;;;2.20;59.79
19114;BME280;9689;51.052;13.772;2024-01-15T12:20:24;98310.28;;;2.14;61.32
19114;BME280;9689;51.052;13.772;2024-01-15T12:25:25;98313.72;;;2.13;61.38
19114;BME280;9689;51.052;13.772;2024-01-15T12:30:29;98313.81;;;2.09;62.22
19114;BME280;9689;51.052;13.772;2024-01-15T12:35:31;98304.41;;;2.09;62.59
19114;BME280;9689;51.052;13.772;2024-01-15T12:40:33;98310.59;;;1.97;63.17
19114;BME280;9689;51.052;13.772;2024-01-15T12:45:38;98306.25;;;1.99;63.73
19114;BME280;9689;51.052;13.772;2024-01-15T12:50:39;98304.78;;;1.86;64.65
19114;BME280;9689;51.052;13.772;2024-01-15T12:55:40;98307.53;;;1.77;65.87
19114;BME280;9689;51.052;13.772;2024-01-15T13:00:42;98305.25;;;1.59;67.22
19114;BME280;9689;51.052;13.772;2024-01-15T13:05:43;98294.94;;;1.62;67.79
19114;BME280;9689;51.052;13.772;2024-01-15T13:10:45;98308.84;;;1.49;68.50
19114;BME280;9689;51.052;13.772;2024-01-15T13:15:47;98316.47;;;1.53;68.51
19114;BME280;9689;51.052;13.772;2024-01-15T13:20:48;98309.69;;;1.48;68.66
19114;BME280;9689;51.052;13.772;2024-01-15T13:25:49;98316.56;;;1.46;69.05
19114;BME280;9689;51.052;13.772;2024-01-15T13:30:51;98306.88;;;1.63;68.89
19114;BME280;9689;51.052;13.772;2024-01-15T13:35:52;98312.13;;;1.58;68.84
19114;BME280;9689;51.052;13.772;2024-01-15T13:40:53;98308.84;;;1.47;70.19
19114;BME280;9689;51.052;13.772;2024-01-15T13:45:56;98337.22;;;1.39;71.24
19114;BME280;9689;51.052;13.772;2024-01-15T13:50:57;98351.75;;;1.40;72.31
19114;BME280;9689;51.052;13.772;2024-01-15T13:55:58;98369.13;;;1.19;74.76
19114;BME280;9689;51.052;13.772;2024-01-15T14:01:01;98371.16;;;0.97;76.23
19114;BME280;9689;51.052;13.772;2024-01-15T14:06:03;98380.69;;;0.84;79.17
19114;BME280;9689;51.052;13.772;2024-01-15T14:11:08;98362.16;;;0.61;81.45
19114;BME280;9689;51.052;13.772;2024-01-15T14:16:11;98357.00;;;0.65;80.61
19114;BME280;9689;51.052;13.772;2024-01-15T14:21:11;98371.50;;;0.66;79.95
19114;BME280;9689;51.052;13.772;2024-01-15T14:26:12;98372.28;;;0.73;78.98
19114;BME280;9689;51.052;13.772;2024-01-15T14:31:16;98384.44;;;0.57;79.70
19114;BME280;9689;51.052;13.772;2024-01-15T14:36:17;98392.97;;;0.56;79.66
19114;BME280;9689;51.052;13.772;2024-01-15T14:41:17;98399.78;;;0.59;79.76
19114;BME280;9689;51.052;13.772;2024-01-15T14:46:20;98411.81;;;0.50;81.18
19114;BME280;9689;51.052;13.772;2024-01-15T14:51:20;98419.59;;;0.44;81.39
19114;BME280;9689;51.052;13.772;2024-01-15T14:56:21;98422.31;;;0.27;84.23
19114;BME280;9689;51.052;13.772;2024-01-15T15:01:23;98419.00;;;0.18;85.92
19114;BME280;9689;51.052;13.772;2024-01-15T15:06:24;98420.72;;;0.14;86.74
19114;BME280;9689;51.052;13.772;2024-01-15T15:11:28;98420.81;;;0.04;87.33
19114;BME280;9689;51.052;13.772;2024-01-15T15:16:30;98411.41;;;0.04;88.54
19114;BME280;9689;51.052;13.772;2024-01-15T15:21:31;98423.31;;;0.08;87.78
19114;BME280;9689;51.052;13.772;2024-01-15T15:26:32;98413.94;;;0.07;86.96
19114;BME280;9689;51.052;13.772;2024-01-15T15:31:34;98424.06;;;0.22;85.49
19114;BME280;9689;51.052;13.772;2024-01-15T15:36:35;98432.56;;;0.24;84.78
19114;BME280;9689;51.052;13.772;2024-01-15T15:41:35;98435.03;;;0.34;83.71
19114;BME280;9689;51.052;13.772;2024-01-15T15:46:38;98436.75;;;0.35;83.09
19114;BME280;9689;51.052;13.772;2024-01-15T15:51:40;98445.31;;;0.32;82.57
19114;BME280;9689;51.052;13.772;2024-01-15T15:56:41;98434.19;;;0.36;83.40
19114;BME280;9689;51.052;13.772;2024-01-15T16:01:48;98438.38;;;0.42;82.56
19114;BME280;9689;51.052;13.772;2024-01-15T16:06:49;98440.94;;;0.45;82.21
19114;BME280;9689;51.052;13.772;2024-01-15T16:11:50;98440.81;;;0.57;80.30
19114;BME280;9689;51.052;13.772;2024-01-15T16:16:53;98451.88;;;0.61;79.64
19114;BME280;9689;51.052;13.772;2024-01-15T16:22:16;98450.06;;;0.69;79.83
19114;BME280;9689;51.052;13.772;2024-01-15T16:27:37;98456.16;;;0.62;80.43
19114;BME280;9689;51.052;13.772;2024-01-15T16:32:41;98476.66;;;0.62;80.11
19114;BME280;9689;51.052;13.772;2024-01-15T16:37:42;98472.38;;;0.61;80.26
19114;BME280;9689;51.052;13.772;2024-01-15T16:42:42;98482.63;;;0.62;79.80
19114;BME280;9689;51.052;13.772;2024-01-15T16:47:46;98499.75;;;0.57;80.53
19114;BME280;9689;51.052;13.772;2024-01-15T16:52:47;98494.59;;;0.60;78.81
19114;BME280;9689;51.052;13.772;2024-01-15T16:57:47;98504.00;;;0.58;79.77
19114;BME280;9689;51.052;13.772;2024-01-15T17:02:50;98505.78;;;0.50;83.47
19114;BME280;9689;51.052;13.772;2024-01-15T17:07:51;98507.72;;;0.22;86.37
19114;BME280;9689;51.052;13.772;2024-01-15T17:12:51;98512.81;;;0.25;85.99
19114;BME280;9689;51.052;13.772;2024-01-15T17:17:53;98514.47;;;0.34;85.35
19114;BME280;9689;51.052;13.772;2024-01-15T17:22:55;98510.16;;;0.39;84.64
19114;BME280;9689;51.052;13.772;2024-01-15T17:27:56;98506.72;;;0.44;83.24
19114;BME280;9689;51.052;13.772;2024-01-15T17:32:58;98515.09;;;0.63;81.67
19114;BME280;9689;51.052;13.772;2024-01-15T17:37:59;98501.34;;;0.72;79.26
19114;BME280;9689;51.052;13.772;2024-01-15T17:43:00;98515.78;;;0.80;78.19
19114;BME280;9689;51.052;13.772;2024-01-15T17:48:02;98524.34;;;0.79;77.72
19114;BME280;9689;51.052;13.772;2024-01-15T17:53:03;98521.69;;;0.85;76.84
19114;BME280;9689;51.052;13.772;2024-01-15T17:58:04;98530.25;;;0.88;77.05
19114;BME280;9689;51.052;13.772;2024-01-15T18:03:07;98533.78;;;0.74;79.69
19114;BME280;9689;51.052;13.772;2024-01-15T18:08:08;98539.06;;;0.56;81.79
19114;BME280;9689;51.052;13.772;2024-01-15T18:13:09;98545.06;;;0.53;83.52
19114;BME280;9689;51.052;13.772;2024-01-15T18:18:11;98544.22;;;0.50;84.33
19114;BME280;9689;51.052;13.772;2024-01-15T18:23:12;98545.94;;;0.51;84.40
19114;BME280;9689;51.052;13.772;2024-01-15T18:28:13;98551.91;;;0.50;84.18
19114;BME280;9689;51.052;13.772;2024-01-15T18:33:15;98551.09;;;0.48;84.46
19114;BME280;9689;51.052;13.772;2024-01-15T18:38:16;98557.03;;;0.50;83.57
19114;BME280;9689;51.052;13.772;2024-01-15T18:43:17;98568.91;;;0.63;82.81
19114;BME280;9689;51.052;13.772;2024-01-15T18:48:19;98571.44;;;0.66;83.37
19114;BME280;9689;51.052;13.772;2024-01-15T18:53:20;98578.38;;;0.53;84.66
19114;BME280;9689;51.052;13.772;2024-01-15T18:58:21;98577.59;;;0.42;86.88
19114;BME280;9689;51.052;13.772;2024-01-15T19:03:24;98570.88;;;0.24;88.58
19114;BME280;9689;51.052;13.772;2024-01-15T19:08:25;98569.19;;;0.28;89.46
19114;BME280;9689;51.052;13.772;2024-01-15T19:13:26;98585.47;;;0.15;89.87
19114;BME280;9689;51.052;13.772;2024-01-15T19:18:28;98589.66;;;0.25;89.72
19114;BME280;9689;51.052;13.772;2024-01-15T19:23:29;98599.94;;;0.26;89.44
19114;BME280;9689;51.052;13.772;2024-01-15T19:28:30;98605.06;;;0.23;89.88
19114;BME280;9689;51.052;13.772;2024-01-15T19:33:32;98611.88;;;0.27;89.95
19114;BME280;9689;51.052;13.772;2024-01-15T19:38:40;98603.41;;;0.18;91.03
19114;BME280;9689;51.052;13.772;2024-01-15T19:43:40;98594.84;;;0.16;91.65
19114;BME280;9689;51.052;13.772;2024-01-15T19:48:43;98605.09;;;0.14;92.33
19114;BME280;9689;51.052;13.772;2024-01-15T19:53:45;98601.66;;;0.20;91.17
19114;BME280;9689;51.052;13.772;2024-01-15T19:58:46;98614.44;;;0.24;90.29
19114;BME280;9689;51.052;13.772;2024-01-15T20:03:48;98605.06;;;0.17;88.99
19114;BME280;9689;51.052;13.772;2024-01-15T20:08:50;98616.94;;;0.37;88.40
19114;BME280;9689;51.052;13.772;2024-01-15T20:13:51;98606.66;;;0.44;85.58
19114;BME280;9689;51.052;13.772;2024-01-15T20:18:53;98618.53;;;0.54;84.37
19114;BME280;9689;51.052;13.772;2024-01-15T20:23:54;98627.88;;;0.63;82.67
19114;BME280;9689;51.052;13.772;2024-01-15T20:29:02;98656.94;;;0.59;82.85
19114;BME280;9689;51.052;13.772;2024-01-15T20:34:05;98658.59;;;0.65;83.02
19114;BME280;9689;51.052;13.772;2024-01-15T20:39:06;98664.59;;;0.61;83.52
19114;BME280;9689;51.052;13.772;2024-01-15T20:44:08;98662.13;;;0.53;84.47
19114;BME280;9689;51.052;13.772;2024-01-15T20:49:11;98669.00;;;0.45;85.34
19114;BME280;9689;51.052;13.772;2024-01-15T20:54:11;98669.81;;;0.48;85.58
19114;BME280;9689;51.052;13.772;2024-01-15T20:59:12;98675.75;;;0.52;84.97
19114;BME280;9689;51.052;13.772;2024-01-15T21:04:14;98674.06;;;0.52;85.67
19114;BME280;9689;51.052;13.772;2024-01-15T21:09:16;98688.63;;;0.41;88.01
19114;BME280;9689;51.052;13.772;2024-01-15T21:14:18;98700.72;;;0.18;90.89
19114;BME280;9689;51.052;13.772;2024-01-15T21:19:20;98691.34;;;0.08;93.19
19114;BME280;9689;51.052;13.772;2024-01-15T21:24:21;98699.03;;;0.14;91.62
19114;BME280;9689;51.052;13.772;2024-01-15T21:29:27;98712.59;;;0.37;90.02
19114;BME280;9689;51.052;13.772;2024-01-15T21:34:29;98712.53;;;0.52;87.88
19114;BME280;9689;51.052;13.772;2024-01-15T21:39:30;98729.53;;;0.63;86.08
19114;BME280;9689;51.052;13.772;2024-01-15T21:44:32;98744.84;;;0.73;84.63
19114;BME280;9689;51.052;13.772;2024-01-15T21:49:35;98743.91;;;0.85;83.66
19114;BME280;9689;51.052;13.772;2024-01-15T21:54:35;98764.41;;;0.87;83.93
19114;BME280;9689;51.052;13.772;2024-01-15T21:59:36;98765.31;;;0.78;83.94
19114;BME280;9689;51.052;13.772;2024-01-15T22:04:38;98772.19;;;0.76;83.93
19114;BME280;9689;51.052;13.772;2024-01-15T22:09:39;98774.75;;;0.74;84.19
19114;BME280;9689;51.052;13.772;2024-01-15T22:14:40;98778.16;;;0.76;84.35
19114;BME280;9689;51.052;13.772;2024-01-15T22:19:42;98806.38;;;0.79;84.97
19114;BME280;9689;51.052;13.772;2024-01-15T22:24:43;98797.88;;;0.70;87.28
19114;BME280;9689;51.052;13.772;2024-01-15T22:29:43;98819.31;;;0.46;91.06
19114;BME280;9689;51.052;13.772;2024-01-15T22:34:48;98830.47;;;0.16;94.49
19114;BME280;9689;51.052;13.772;2024-01-15T22:39:49;98837.38;;;-0.14;96.47
19114;BME280;9689;51.052;13.772;2024-01-15T22:44:51;98821.16;;;-0.23;98.89
19114;BME280;9689;51.052;13.772;2024-01-15T22:49:53;98829.69;;;-0.18;99.95
19114;BME280;9689;51.052;13.772;2024-01-15T22:54:54;98828.84;;;-0.14;100.00
19114;BME280;9689;51.052;13.772;2024-01-15T22:59:55;98844.19;;;-0.04;100.00
19114;BME280;9689;51.052;13.772;2024-01-15T23:04:57;98851.00;;;-0.01;99.38
19114;BME280;9689;51.052;13.772;2024-01-15T23:09:57;98851.03;;;0.01;97.57
19114;BME280;9689;51.052;13.772;2024-01-15T23:14:58;98856.97;;;0.06;95.33
19114;BME280;9689;51.052;13.772;2024-01-15T23:20:00;98867.22;;;0.13;92.48
19114;BME280;9689;51.052;13.772;2024-01-15T23:25:04;98882.56;;;0.24;88.39
19114;BME280;9689;51.052;13.772;2024-01-15T23:30:06;98870.59;;;0.32;85.81
19114;BME280;9689;51.052;13.772;2024-01-15T23:35:10;98869.72;;;0.39;82.05
19114;BME280;9689;51.052;13.772;2024-01-15T23:40:11;98879.94;;;0.51;79.58
19114;BME280;9689;51.052;13.772;2024-01-15T23:45:12;98885.06;;;0.51;78.43
19114;BME280;9689;51.052;13.772;2024-01-15T23:50:14;98903.00;;;0.57;76.69
19114;BME280;9689;51.052;13.772;2024-01-15T23:55:15;98909.84;;;0.55;76.99
